sensor_id;sensor_type;location;lat;lon;timestamp;P1;durP1;ratioP1;P2;durP2;ratioP2
13250;SDS011;6692;50.710;7.180;2023-02-22T00:01:18;63.67;;;57.80;;
13250;SDS011;6692;50.710;7.180;2023-02-22T00:03:22;57.80;;;52.97;;
13250;SDS011;6692;50.710;7.180;2023-02-22T00:05:19;63.40;;;58.27;;
13250;SDS011;6692;50.710;7.180;2023-02-22T00:07:20;73.50;;;67.50;;
13250;SDS011;6692;50.710;7.180;2023-02-22T00:09:21;70.57;;;65.13;;
13250;SDS011;6692;50.710;7.180;2023-02-22T00:11:23;73.47;;;67.47;;
13250;SDS011;6692;50.710;7.180;2023-02-22T00:13:24;77.77;;;71.80;;
13250;SDS011;6692;50.710;7.180;2023-02-22T00:15:25;66.90;;;61.30;;
13250;SDS011;6692;50.710;7.180;2023-02-22T00:17:26;60.53;;;55.17;;
13250;SDS011;6692;50.710;7.180;2023-02-22T00:19:27;62.63;;;57.27;;
13250;SDS011;6692;50.710;7.180;2023-02-22T00:21:28;65.20;;;60.03;;
13250;SDS011;6692;50.710;7.180;2023-02-22T00:23:29;61.93;;;56.57;;
13250;SDS011;6692;50.710;7.180;2023-02-22T00:25:29;66.10;;;60.83;;
13250;SDS011;6692;50.710;7.180;2023-02-22T00:27:30;73.40;;;67.57;;
13250;SDS011;6692;50.710;7.180;2023-02-22T00:29:30;85.57;;;79.33;;
13250;SDS011;6692;50.710;7.180;2023-02-22T00:31:35;91.33;;;84.73;;
13250;SDS011;6692;50.710;7.180;2023-02-22T00:33:32;87.37;;;80.43;;
13250;SDS011;6692;50.710;7.180;2023-02-22T00:35:32;90.17;;;83.27;;
13250;SDS011;6692;50.710;7.180;2023-02-22T00:37:33;90.63;;;83.77;;
13250;SDS011;6692;50.710;7.180;2023-02-22T00:39:33;94.70;;;87.33;;
13250;SDS011;6692;50.710;7.180;2023-02-22T00:41:34;96.90;;;89.17;;
13250;SDS011;6692;50.710;7.180;2023-02-22T00:43:35;106.07;;;98.53;;
13250;SDS011;6692;50.710;7.180;2023-02-22T00:45:36;103.50;;;96.07;;
13250;SDS011;6692;50.710;7.180;2023-02-22T00:47:36;101.00;;;93.70;;
13250;SDS011;6692;50.710;7.180;2023-02-22T00:49:37;107.03;;;98.77;;
13250;SDS011;6692;50.710;7.180;2023-02-22T00:51:38;100.83;;;92.73;;
13250;SDS011;6692;50.710;7.180;2023-02-22T00:53:39;105.17;;;96.17;;
13250;SDS011;6692;50.710;7.180;2023-02-22T00:55:40;100.80;;;93.07;;
13250;SDS011;6692;50.710;7.180;2023-02-22T00:57:40;107.83;;;100.17;;
13250;SDS011;6692;50.710;7.180;2023-02-22T00:59:41;107.70;;;100.00;;
13250;SDS011;6692;50.710;7.180;2023-02-22T01:01:43;106.57;;;98.93;;
13250;SDS011;6692;50.710;7.180;2023-02-22T01:03:43;106.47;;;98.40;;
13250;SDS011;6692;50.710;7.180;2023-02-22T01:05:45;110.77;;;102.73;;
13250;SDS011;6692;50.710;7.180;2023-02-22T01:07:45;108.20;;;100.53;;
13250;SDS011;6692;50.710;7.180;2023-02-22T01:09:47;119.43;;;110.07;;
13250;SDS011;6692;50.710;7.180;2023-02-22T01:11:51;108.10;;;100.20;;
13250;SDS011;6692;50.710;7.180;2023-02-22T01:13:49;106.97;;;99.57;;
13250;SDS011;6692;50.710;7.180;2023-02-22T01:15:49;108.00;;;100.37;;
13250;SDS011;6692;50.710;7.180;2023-02-22T01:17:51;98.73;;;91.53;;
13250;SDS011;6692;50.710;7.180;2023-02-22T01:19:52;97.27;;;90.23;;
13250;SDS011;6692;50.710;7.180;2023-02-22T01:21:53;92.77;;;86.13;;
13250;SDS011;6692;50.710;7.180;2023-02-22T01:23:53;92.90;;;86.50;;
13250;SDS011;6692;50.710;7.180;2023-02-22T01:25:55;95.43;;;88.73;;
13250;SDS011;6692;50.710;7.180;2023-02-22T01:27:56;98.57;;;92.40;;
13250;SDS011;6692;50.710;7.180;2023-02-22T01:29:56;99.63;;;92.87;;
13250;SDS011;6692;50.710;7.180;2023-02-22T01:31:57;99.80;;;93.23;;
13250;SDS011;6692;50.710;7.180;2023-02-22T01:33:58;103.10;;;96.60;;
13250;SDS011;6692;50.710;7.180;2023-02-22T01:35:59;95.37;;;88.90;;
13250;SDS011;6692;50.710;7.180;2023-02-22T01:38:00;93.20;;;86.53;;
13250;SDS011;6692;50.710;7.180;2023-02-22T01:40:01;104.43;;;98.00;;
13250;SDS011;6692;50.710;7.180;2023-02-22T01:42:01;105.93;;;99.23;;
13250;SDS011;6692;50.710;7.180;2023-02-22T01:46:25;90.13;;;83.90;;
13250;SDS011;6692;50.710;7.180;2023-02-22T01:48:30;88.97;;;81.87;;
13250;SDS011;6692;50.710;7.180;2023-02-22T01:50:35;87.93;;;81.97;;
13250;SDS011;6692;50.710;7.180;2023-02-22T01:52:34;86.63;;;80.83;;
13250;SDS011;6692;50.710;7.180;2023-02-22T01:54:38;90.70;;;84.37;;
13250;SDS011;6692;50.710;7.180;2023-02-22T01:56:37;90.37;;;84.20;;
13250;SDS011;6692;50.710;7.180;2023-02-22T01:58:38;91.23;;;85.00;;
13250;SDS011;6692;50.710;7.180;2023-02-22T02:00:38;97.00;;;91.00;;
13250;SDS011;6692;50.710;7.180;2023-02-22T02:02:41;92.47;;;86.53;;
13250;SDS011;6692;50.710;7.180;2023-02-22T02:04:40;93.93;;;87.83;;
13250;SDS011;6692;50.710;7.180;2023-02-22T02:08:44;91.20;;;85.20;;
13250;SDS011;6692;50.710;7.180;2023-02-22T02:10:59;82.43;;;76.53;;
13250;SDS011;6692;50.710;7.180;2023-02-22T02:12:59;88.90;;;82.83;;
13250;SDS011;6692;50.710;7.180;2023-02-22T02:17:26;72.17;;;66.43;;
13250;SDS011;6692;50.710;7.180;2023-02-22T02:19:45;76.40;;;70.63;;
13250;SDS011;6692;50.710;7.180;2023-02-22T02:21:48;61.00;;;56.30;;
13250;SDS011;6692;50.710;7.180;2023-02-22T02:24:01;63.63;;;58.70;;
13250;SDS011;6692;50.710;7.180;2023-02-22T02:26:07;60.53;;;56.00;;
13250;SDS011;6692;50.710;7.180;2023-02-22T02:28:25;58.67;;;54.03;;
13250;SDS011;6692;50.710;7.180;2023-02-22T02:32:39;62.23;;;57.33;;
13250;SDS011;6692;50.710;7.180;2023-02-22T02:39:04;71.67;;;66.40;;
13250;SDS011;6692;50.710;7.180;2023-02-22T02:41:13;74.93;;;69.63;;
13250;SDS011;6692;50.710;7.180;2023-02-22T02:43:14;73.70;;;68.70;;
13250;SDS011;6692;50.710;7.180;2023-02-22T02:45:22;74.00;;;68.57;;
13250;SDS011;6692;50.710;7.180;2023-02-22T02:47:23;79.73;;;74.57;;
13250;SDS011;6692;50.710;7.180;2023-02-22T02:49:24;81.40;;;75.97;;
13250;SDS011;6692;50.710;7.180;2023-02-22T02:51:26;77.60;;;72.50;;
13250;SDS011;6692;50.710;7.180;2023-02-22T02:53:26;80.50;;;74.97;;
13250;SDS011;6692;50.710;7.180;2023-02-22T02:55:28;85.50;;;80.00;;
13250;SDS011;6692;50.710;7.180;2023-02-22T02:57:28;78.27;;;72.90;;
13250;SDS011;6692;50.710;7.180;2023-02-22T02:59:30;74.37;;;69.57;;
13250;SDS011;6692;50.710;7.180;2023-02-22T03:01:34;76.57;;;71.57;;
13250;SDS011;6692;50.710;7.180;2023-02-22T03:03:54;67.53;;;62.93;;
13250;SDS011;6692;50.710;7.180;2023-02-22T03:05:56;66.87;;;62.27;;
13250;SDS011;6692;50.710;7.180;2023-02-22T03:08:02;71.00;;;66.30;;
13250;SDS011;6692;50.710;7.180;2023-02-22T03:10:06;77.27;;;72.53;;
13250;SDS011;6692;50.710;7.180;2023-02-22T03:12:25;78.87;;;73.83;;
13250;SDS011;6692;50.710;7.180;2023-02-22T03:14:28;81.67;;;76.40;;
13250;SDS011;6692;50.710;7.180;2023-02-22T03:17:00;74.10;;;69.20;;
13250;SDS011;6692;50.710;7.180;2023-02-22T03:18:48;63.73;;;58.90;;
13250;SDS011;6692;50.710;7.180;2023-02-22T03:20:54;67.13;;;61.77;;
13250;SDS011;6692;50.710;7.180;2023-02-22T03:22:54;63.47;;;58.67;;
13250;SDS011;6692;50.710;7.180;2023-02-22T03:25:01;63.63;;;58.97;;
13250;SDS011;6692;50.710;7.180;2023-02-22T03:27:03;59.33;;;54.70;;
13250;SDS011;6692;50.710;7.180;2023-02-22T03:29:03;61.30;;;55.97;;
13250;SDS011;6692;50.710;7.180;2023-02-22T03:31:05;58.93;;;54.00;;
13250;SDS011;6692;50.710;7.180;2023-02-22T03:33:06;53.33;;;49.17;;
13250;SDS011;6692;50.710;7.180;2023-02-22T03:35:08;56.73;;;52.07;;
13250;SDS011;6692;50.710;7.180;2023-02-22T03:37:11;56.93;;;52.40;;
13250;SDS011;6692;50.710;7.180;2023-02-22T03:39:13;51.60;;;47.63;;
13250;SDS011;6692;50.710;7.180;2023-02-22T03:41:12;52.97;;;47.87;;
13250;SDS011;6692;50.710;7.180;2023-02-22T03:43:14;48.83;;;44.77;;
13250;SDS011;6692;50.710;7.180;2023-02-22T03:45:15;48.13;;;43.83;;
13250;SDS011;6692;50.710;7.180;2023-02-22T03:47:17;46.03;;;42.00;;
13250;SDS011;6692;50.710;7.180;2023-02-22T03:49:19;47.50;;;43.17;;
13250;SDS011;6692;50.710;7.180;2023-02-22T03:51:19;47.40;;;43.27;;
13250;SDS011;6692;50.710;7.180;2023-02-22T03:53:20;45.83;;;41.77;;
13250;SDS011;6692;50.710;7.180;2023-02-22T03:55:20;48.63;;;44.47;;
13250;SDS011;6692;50.710;7.180;2023-02-22T03:57:24;45.20;;;41.70;;
13250;SDS011;6692;50.710;7.180;2023-02-22T03:59:22;45.77;;;42.40;;
13250;SDS011;6692;50.710;7.180;2023-02-22T04:01:23;45.63;;;42.10;;
13250;SDS011;6692;50.710;7.180;2023-02-22T04:03:24;47.60;;;44.07;;
13250;SDS011;6692;50.710;7.180;2023-02-22T04:05:24;50.77;;;46.90;;
13250;SDS011;6692;50.710;7.180;2023-02-22T04:07:25;49.60;;;45.77;;
13250;SDS011;6692;50.710;7.180;2023-02-22T04:09:26;46.10;;;42.77;;
13250;SDS011;6692;50.710;7.180;2023-02-22T04:11:26;45.77;;;42.30;;
13250;SDS011;6692;50.710;7.180;2023-02-22T04:13:28;42.73;;;39.40;;
13250;SDS011;6692;50.710;7.180;2023-02-22T04:15:28;41.43;;;38.17;;
13250;SDS011;6692;50.710;7.180;2023-02-22T04:17:30;42.50;;;39.33;;
13250;SDS011;6692;50.710;7.180;2023-02-22T04:19:31;41.83;;;38.73;;
13250;SDS011;6692;50.710;7.180;2023-02-22T04:21:32;40.90;;;37.57;;
13250;SDS011;6692;50.710;7.180;2023-02-22T04:23:33;39.97;;;36.77;;
13250;SDS011;6692;50.710;7.180;2023-02-22T04:25:34;37.20;;;34.07;;
13250;SDS011;6692;50.710;7.180;2023-02-22T04:27:35;36.73;;;33.83;;
13250;SDS011;6692;50.710;7.180;2023-02-22T04:29:36;36.90;;;33.97;;
13250;SDS011;6692;50.710;7.180;2023-02-22T04:31:37;36.43;;;33.53;;
13250;SDS011;6692;50.710;7.180;2023-02-22T04:33:38;38.10;;;34.97;;
13250;SDS011;6692;50.710;7.180;2023-02-22T04:35:39;38.87;;;35.87;;
13250;SDS011;6692;50.710;7.180;2023-02-22T04:37:40;35.53;;;32.83;;
13250;SDS011;6692;50.710;7.180;2023-02-22T04:39:41;31.80;;;29.07;;
13250;SDS011;6692;50.710;7.180;2023-02-22T04:41:42;28.43;;;26.00;;
13250;SDS011;6692;50.710;7.180;2023-02-22T04:43:43;30.13;;;27.60;;
13250;SDS011;6692;50.710;7.180;2023-02-22T04:45:45;30.23;;;27.50;;
13250;SDS011;6692;50.710;7.180;2023-02-22T04:47:45;28.90;;;26.30;;
13250;SDS011;6692;50.710;7.180;2023-02-22T04:49:46;27.47;;;24.90;;
13250;SDS011;6692;50.710;7.180;2023-02-22T04:51:47;25.10;;;22.73;;
13250;SDS011;6692;50.710;7.180;2023-02-22T04:53:48;26.53;;;24.13;;
13250;SDS011;6692;50.710;7.180;2023-02-22T04:55:49;27.43;;;25.00;;
13250;SDS011;6692;50.710;7.180;2023-02-22T04:57:49;27.63;;;25.13;;
13250;SDS011;6692;50.710;7.180;2023-02-22T04:59:50;26.60;;;24.23;;
13250;SDS011;6692;50.710;7.180;2023-02-22T05:01:50;26.77;;;24.57;;
13250;SDS011;6692;50.710;7.180;2023-02-22T05:03:51;24.20;;;22.00;;
13250;SDS011;6692;50.710;7.180;2023-02-22T05:05:53;24.50;;;22.20;;
13250;SDS011;6692;50.710;7.180;2023-02-22T05:07:53;25.83;;;23.35;;
13250;SDS011;6692;50.710;7.180;2023-02-22T05:09:55;23.70;;;21.43;;
13250;SDS011;6692;50.710;7.180;2023-02-22T05:11:55;23.03;;;20.97;;
13250;SDS011;6692;50.710;7.180;2023-02-22T05:13:56;24.73;;;22.43;;
13250;SDS011;6692;50.710;7.180;2023-02-22T05:15:56;23.77;;;21.43;;
13250;SDS011;6692;50.710;7.180;2023-02-22T05:17:58;25.73;;;23.37;;
13250;SDS011;6692;50.710;7.180;2023-02-22T05:19:58;24.13;;;21.83;;
13250;SDS011;6692;50.710;7.180;2023-02-22T05:22:00;27.50;;;25.00;;
13250;SDS011;6692;50.710;7.180;2023-02-22T05:24:01;25.77;;;23.20;;
13250;SDS011;6692;50.710;7.180;2023-02-22T05:26:03;24.77;;;22.37;;
13250;SDS011;6692;50.710;7.180;2023-02-22T05:28:06;23.80;;;21.50;;
13250;SDS011;6692;50.710;7.180;2023-02-22T05:30:05;25.13;;;21.87;;
13250;SDS011;6692;50.710;7.180;2023-02-22T05:32:07;25.47;;;22.90;;
13250;SDS011;6692;50.710;7.180;2023-02-22T05:34:07;24.67;;;22.30;;
13250;SDS011;6692;50.710;7.180;2023-02-22T05:36:08;23.90;;;21.60;;
13250;SDS011;6692;50.710;7.180;2023-02-22T05:38:10;22.80;;;20.40;;
13250;SDS011;6692;50.710;7.180;2023-02-22T05:40:10;24.13;;;21.73;;
13250;SDS011;6692;50.710;7.180;2023-02-22T05:42:11;23.83;;;21.60;;
13250;SDS011;6692;50.710;7.180;2023-02-22T05:44:11;21.87;;;19.57;;
13250;SDS011;6692;50.710;7.180;2023-02-22T05:46:12;24.10;;;21.63;;
13250;SDS011;6692;50.710;7.180;2023-02-22T05:48:13;22.30;;;19.70;;
13250;SDS011;6692;50.710;7.180;2023-02-22T05:50:14;23.87;;;20.97;;
13250;SDS011;6692;50.710;7.180;2023-02-22T05:52:15;22.80;;;20.07;;
13250;SDS011;6692;50.710;7.180;2023-02-22T05:54:15;21.20;;;18.17;;
13250;SDS011;6692;50.710;7.180;2023-02-22T05:56:20;20.63;;;18.50;;
13250;SDS011;6692;50.710;7.180;2023-02-22T05:58:22;20.80;;;18.73;;
13250;SDS011;6692;50.710;7.180;2023-02-22T06:00:25;20.30;;;18.10;;
13250;SDS011;6692;50.710;7.180;2023-02-22T06:02:25;24.17;;;19.10;;
13250;SDS011;6692;50.710;7.180;2023-02-22T06:04:25;23.27;;;20.53;;
13250;SDS011;6692;50.710;7.180;2023-02-22T06:06:26;23.13;;;19.07;;
13250;SDS011;6692;50.710;7.180;2023-02-22T06:08:27;20.67;;;18.47;;
13250;SDS011;6692;50.710;7.180;2023-02-22T06:10:27;22.70;;;18.17;;
13250;SDS011;6692;50.710;7.180;2023-02-22T06:12:28;19.97;;;17.67;;
13250;SDS011;6692;50.710;7.180;2023-02-22T06:14:29;21.67;;;16.63;;
13250;SDS011;6692;50.710;7.180;2023-02-22T06:16:29;18.83;;;16.53;;
13250;SDS011;6692;50.710;7.180;2023-02-22T06:18:30;20.73;;;16.83;;
13250;SDS011;6692;50.710;7.180;2023-02-22T06:20:30;20.43;;;17.83;;
13250;SDS011;6692;50.710;7.180;2023-02-22T06:22:31;19.07;;;16.17;;
13250;SDS011;6692;50.710;7.180;2023-02-22T06:24:32;20.10;;;15.83;;
13250;SDS011;6692;50.710;7.180;2023-02-22T06:26:33;19.07;;;16.17;;
13250;SDS011;6692;50.710;7.180;2023-02-22T06:28:34;17.80;;;15.97;;
13250;SDS011;6692;50.710;7.180;2023-02-22T06:30:35;19.17;;;16.50;;
13250;SDS011;6692;50.710;7.180;2023-02-22T06:32:35;19.17;;;16.80;;
13250;SDS011;6692;50.710;7.180;2023-02-22T06:34:37;19.53;;;17.47;;
13250;SDS011;6692;50.710;7.180;2023-02-22T06:36:37;19.27;;;16.43;;
13250;SDS011;6692;50.710;7.180;2023-02-22T06:38:38;18.63;;;16.63;;
13250;SDS011;6692;50.710;7.180;2023-02-22T06:40:39;20.53;;;17.07;;
13250;SDS011;6692;50.710;7.180;2023-02-22T06:42:40;17.70;;;15.87;;
13250;SDS011;6692;50.710;7.180;2023-02-22T06:44:41;17.27;;;15.43;;
13250;SDS011;6692;50.710;7.180;2023-02-22T06:46:47;17.67;;;15.77;;
13250;SDS011;6692;50.710;7.180;2023-02-22T06:48:47;17.83;;;15.93;;
13250;SDS011;6692;50.710;7.180;2023-02-22T06:50:48;18.60;;;16.70;;
13250;SDS011;6692;50.710;7.180;2023-02-22T06:52:48;18.00;;;16.00;;
13250;SDS011;6692;50.710;7.180;2023-02-22T06:54:49;17.63;;;15.60;;
13250;SDS011;6692;50.710;7.180;2023-02-22T06:56:50;17.43;;;15.73;;
13250;SDS011;6692;50.710;7.180;2023-02-22T06:58:51;16.93;;;15.07;;
13250;SDS011;6692;50.710;7.180;2023-02-22T07:00:52;17.35;;;15.35;;
13250;SDS011;6692;50.710;7.180;2023-02-22T07:02:53;18.15;;;14.57;;
13250;SDS011;6692;50.710;7.180;2023-02-22T07:04:54;17.97;;;15.93;;
13250;SDS011;6692;50.710;7.180;2023-02-22T07:06:54;17.03;;;15.17;;
13250;SDS011;6692;50.710;7.180;2023-02-22T07:08:55;17.43;;;14.83;;
13250;SDS011;6692;50.710;7.180;2023-02-22T07:10:56;18.40;;;16.43;;
13250;SDS011;6692;50.710;7.180;2023-02-22T07:12:56;16.93;;;15.13;;
13250;SDS011;6692;50.710;7.180;2023-02-22T07:14:57;18.17;;;16.23;;
13250;SDS011;6692;50.710;7.180;2023-02-22T07:16:57;16.67;;;14.90;;
13250;SDS011;6692;50.710;7.180;2023-02-22T07:18:58;18.57;;;15.80;;
13250;SDS011;6692;50.710;7.180;2023-02-22T07:20:59;19.03;;;15.73;;
13250;SDS011;6692;50.710;7.180;2023-02-22T07:22:59;17.87;;;15.93;;
13250;SDS011;6692;50.710;7.180;2023-02-22T07:25:00;18.50;;;16.60;;
13250;SDS011;6692;50.710;7.180;2023-02-22T07:27:01;19.57;;;17.53;;
13250;SDS011;6692;50.710;7.180;2023-02-22T07:29:01;18.00;;;16.30;;
13250;SDS011;6692;50.710;7.180;2023-02-22T07:31:02;18.03;;;16.37;;
13250;SDS011;6692;50.710;7.180;2023-02-22T07:33:04;17.80;;;16.23;;
13250;SDS011;6692;50.710;7.180;2023-02-22T07:35:04;18.67;;;16.97;;
13250;SDS011;6692;50.710;7.180;2023-02-22T07:37:05;17.73;;;16.17;;
13250;SDS011;6692;50.710;7.180;2023-02-22T07:39:05;16.40;;;14.90;;
13250;SDS011;6692;50.710;7.180;2023-02-22T07:41:06;19.13;;;17.43;;
13250;SDS011;6692;50.710;7.180;2023-02-22T07:43:16;19.77;;;17.87;;
13250;SDS011;6692;50.710;7.180;2023-02-22T07:45:21;19.13;;;17.00;;
13250;SDS011;6692;50.710;7.180;2023-02-22T07:47:21;19.07;;;17.47;;
13250;SDS011;6692;50.710;7.180;2023-02-22T07:49:22;21.67;;;19.60;;
13250;SDS011;6692;50.710;7.180;2023-02-22T07:51:22;21.27;;;19.37;;
13250;SDS011;6692;50.710;7.180;2023-02-22T07:53:24;23.33;;;21.30;;
13250;SDS011;6692;50.710;7.180;2023-02-22T07:55:25;24.77;;;22.63;;
13250;SDS011;6692;50.710;7.180;2023-02-22T07:57:24;25.17;;;23.03;;
13250;SDS011;6692;50.710;7.180;2023-02-22T07:59:25;27.43;;;25.20;;
13250;SDS011;6692;50.710;7.180;2023-02-22T08:01:26;28.70;;;26.50;;
13250;SDS011;6692;50.710;7.180;2023-02-22T08:03:28;32.77;;;30.23;;
13250;SDS011;6692;50.710;7.180;2023-02-22T08:05:29;32.53;;;30.00;;
13250;SDS011;6692;50.710;7.180;2023-02-22T08:07:29;31.67;;;29.27;;
13250;SDS011;6692;50.710;7.180;2023-02-22T08:09:30;35.20;;;32.57;;
13250;SDS011;6692;50.710;7.180;2023-02-22T08:11:31;36.67;;;33.73;;
13250;SDS011;6692;50.710;7.180;2023-02-22T08:13:32;39.80;;;37.00;;
13250;SDS011;6692;50.710;7.180;2023-02-22T08:15:35;42.63;;;39.57;;
13250;SDS011;6692;50.710;7.180;2023-02-22T08:17:33;45.53;;;42.47;;
13250;SDS011;6692;50.710;7.180;2023-02-22T08:19:34;45.83;;;42.83;;
13250;SDS011;6692;50.710;7.180;2023-02-22T08:21:34;49.47;;;46.10;;
13250;SDS011;6692;50.710;7.180;2023-02-22T08:23:35;56.27;;;52.87;;
13250;SDS011;6692;50.710;7.180;2023-02-22T08:25:36;56.27;;;52.87;;
13250;SDS011;6692;50.710;7.180;2023-02-22T08:27:36;57.37;;;53.93;;
13250;SDS011;6692;50.710;7.180;2023-02-22T08:29:38;61.27;;;57.63;;
13250;SDS011;6692;50.710;7.180;2023-02-22T08:31:39;60.10;;;56.80;;
13250;SDS011;6692;50.710;7.180;2023-02-22T08:33:40;60.37;;;56.97;;
13250;SDS011;6692;50.710;7.180;2023-02-22T08:35:41;63.53;;;60.10;;
13250;SDS011;6692;50.710;7.180;2023-02-22T08:37:42;66.63;;;63.17;;
13250;SDS011;6692;50.710;7.180;2023-02-22T08:39:43;68.33;;;64.70;;
13250;SDS011;6692;50.710;7.180;2023-02-22T08:41:44;75.50;;;71.33;;
13250;SDS011;6692;50.710;7.180;2023-02-22T08:43:45;76.60;;;72.53;;
13250;SDS011;6692;50.710;7.180;2023-02-22T08:45:47;78.97;;;74.77;;
13250;SDS011;6692;50.710;7.180;2023-02-22T08:47:47;90.90;;;86.20;;
13250;SDS011;6692;50.710;7.180;2023-02-22T08:49:48;87.67;;;82.70;;
13250;SDS011;6692;50.710;7.180;2023-02-22T08:51:49;80.23;;;75.13;;
13250;SDS011;6692;50.710;7.180;2023-02-22T08:53:49;71.60;;;66.70;;
13250;SDS011;6692;50.710;7.180;2023-02-22T08:55:50;76.37;;;71.27;;
13250;SDS011;6692;50.710;7.180;2023-02-22T08:57:51;90.33;;;84.97;;
13250;SDS011;6692;50.710;7.180;2023-02-22T08:59:51;79.30;;;74.13;;
13250;SDS011;6692;50.710;7.180;2023-02-22T09:01:52;90.40;;;84.93;;
13250;SDS011;6692;50.710;7.180;2023-02-22T09:03:53;96.20;;;90.80;;
13250;SDS011;6692;50.710;7.180;2023-02-22T09:05:53;106.50;;;100.70;;
13250;SDS011;6692;50.710;7.180;2023-02-22T09:07:54;122.43;;;116.43;;
13250;SDS011;6692;50.710;7.180;2023-02-22T09:09:55;137.63;;;131.17;;
13250;SDS011;6692;50.710;7.180;2023-02-22T09:11:55;141.63;;;134.77;;
13250;SDS011;6692;50.710;7.180;2023-02-22T09:13:56;146.60;;;139.77;;
13250;SDS011;6692;50.710;7.180;2023-02-22T09:15:57;155.27;;;148.03;;
13250;SDS011;6692;50.710;7.180;2023-02-22T09:17:57;162.57;;;155.13;;
13250;SDS011;6692;50.710;7.180;2023-02-22T09:19:58;183.70;;;175.37;;
13250;SDS011;6692;50.710;7.180;2023-02-22T09:21:59;183.07;;;174.90;;
13250;SDS011;6692;50.710;7.180;2023-02-22T09:24:00;169.00;;;161.03;;
13250;SDS011;6692;50.710;7.180;2023-02-22T09:26:00;159.03;;;151.33;;
13250;SDS011;6692;50.710;7.180;2023-02-22T09:28:02;147.13;;;139.40;;
13250;SDS011;6692;50.710;7.180;2023-02-22T09:30:04;155.00;;;147.20;;
13250;SDS011;6692;50.710;7.180;2023-02-22T09:32:05;162.73;;;154.87;;
13250;SDS011;6692;50.710;7.180;2023-02-22T09:34:06;167.73;;;159.50;;
13250;SDS011;6692;50.710;7.180;2023-02-22T09:36:06;188.00;;;179.27;;
13250;SDS011;6692;50.710;7.180;2023-02-22T09:38:07;187.07;;;178.53;;
13250;SDS011;6692;50.710;7.180;2023-02-22T09:40:08;207.93;;;198.63;;
13250;SDS011;6692;50.710;7.180;2023-02-22T09:42:27;230.63;;;220.83;;
13250;SDS011;6692;50.710;7.180;2023-02-22T09:44:31;251.07;;;240.83;;
13250;SDS011;6692;50.710;7.180;2023-02-22T09:46:36;218.43;;;209.03;;
13250;SDS011;6692;50.710;7.180;2023-02-22T09:48:39;248.70;;;238.33;;
13250;SDS011;6692;50.710;7.180;2023-02-22T09:50:41;257.33;;;246.53;;
13250;SDS011;6692;50.710;7.180;2023-02-22T09:52:50;289.23;;;277.60;;
13250;SDS011;6692;50.710;7.180;2023-02-22T09:54:48;220.00;;;210.67;;
13250;SDS011;6692;50.710;7.180;2023-02-22T09:56:49;208.57;;;199.47;;
13250;SDS011;6692;50.710;7.180;2023-02-22T09:58:50;211.43;;;202.30;;
13250;SDS011;6692;50.710;7.180;2023-02-22T10:00:51;225.03;;;215.43;;
13250;SDS011;6692;50.710;7.180;2023-02-22T10:02:56;232.30;;;222.50;;
13250;SDS011;6692;50.710;7.180;2023-02-22T10:05:28;187.67;;;179.60;;
13250;SDS011;6692;50.710;7.180;2023-02-22T10:07:30;204.37;;;195.50;;
13250;SDS011;6692;50.710;7.180;2023-02-22T10:09:28;177.20;;;169.13;;
13250;SDS011;6692;50.710;7.180;2023-02-22T10:11:34;199.80;;;190.90;;
13250;SDS011;6692;50.710;7.180;2023-02-22T10:13:40;176.47;;;168.70;;
13250;SDS011;6692;50.710;7.180;2023-02-22T10:15:41;190.73;;;182.17;;
13250;SDS011;6692;50.710;7.180;2023-02-22T10:18:04;172.40;;;164.47;;
13250;SDS011;6692;50.710;7.180;2023-02-22T10:20:28;175.07;;;167.40;;
13250;SDS011;6692;50.710;7.180;2023-02-22T10:22:28;144.40;;;137.43;;
13250;SDS011;6692;50.710;7.180;2023-02-22T10:24:50;141.37;;;134.33;;
13250;SDS011;6692;50.710;7.180;2023-02-22T10:26:50;141.73;;;134.97;;
13250;SDS011;6692;50.710;7.180;2023-02-22T10:29:01;150.47;;;143.23;;
13250;SDS011;6692;50.710;7.180;2023-02-22T10:31:06;152.17;;;145.20;;
13250;SDS011;6692;50.710;7.180;2023-02-22T10:33:09;212.70;;;203.83;;
13250;SDS011;6692;50.710;7.180;2023-02-22T10:35:15;227.63;;;218.30;;
13250;SDS011;6692;50.710;7.180;2023-02-22T10:37:24;238.57;;;228.93;;
13250;SDS011;6692;50.710;7.180;2023-02-22T10:39:31;233.23;;;223.83;;
13250;SDS011;6692;50.710;7.180;2023-02-22T10:41:33;258.57;;;247.97;;
13250;SDS011;6692;50.710;7.180;2023-02-22T10:43:33;281.43;;;270.67;;
13250;SDS011;6692;50.710;7.180;2023-02-22T10:45:34;308.40;;;296.27;;
13250;SDS011;6692;50.710;7.180;2023-02-22T10:47:35;291.93;;;280.30;;
13250;SDS011;6692;50.710;7.180;2023-02-22T10:49:37;180.93;;;173.07;;
13250;SDS011;6692;50.710;7.180;2023-02-22T10:51:37;249.57;;;239.70;;
13250;SDS011;6692;50.710;7.180;2023-02-22T10:53:38;262.63;;;251.97;;
13250;SDS011;6692;50.710;7.180;2023-02-22T10:58:03;261.83;;;251.53;;
13250;SDS011;6692;50.710;7.180;2023-02-22T11:02:17;257.00;;;246.67;;
13250;SDS011;6692;50.710;7.180;2023-02-22T11:04:17;269.47;;;258.90;;
13250;SDS011;6692;50.710;7.180;2023-02-22T11:06:18;299.10;;;287.47;;
13250;SDS011;6692;50.710;7.180;2023-02-22T11:08:24;311.37;;;299.37;;
13250;SDS011;6692;50.710;7.180;2023-02-22T11:10:29;319.37;;;306.93;;
13250;SDS011;6692;50.710;7.180;2023-02-22T11:12:30;328.83;;;316.23;;
13250;SDS011;6692;50.710;7.180;2023-02-22T11:14:30;296.33;;;285.00;;
13250;SDS011;6692;50.710;7.180;2023-02-22T11:16:32;252.37;;;242.60;;
13250;SDS011;6692;50.710;7.180;2023-02-22T11:18:33;210.27;;;201.67;;
13250;SDS011;6692;50.710;7.180;2023-02-22T11:20:34;229.23;;;219.77;;
13250;SDS011;6692;50.710;7.180;2023-02-22T11:22:37;188.63;;;180.67;;
13250;SDS011;6692;50.710;7.180;2023-02-22T11:24:43;200.00;;;191.60;;
13250;SDS011;6692;50.710;7.180;2023-02-22T11:26:45;176.40;;;168.80;;
13250;SDS011;6692;50.710;7.180;2023-02-22T11:28:45;235.37;;;225.73;;
13250;SDS011;6692;50.710;7.180;2023-02-22T11:30:48;213.47;;;204.67;;
13250;SDS011;6692;50.710;7.180;2023-02-22T11:32:49;230.17;;;220.97;;
13250;SDS011;6692;50.710;7.180;2023-02-22T11:34:49;204.07;;;195.07;;
13250;SDS011;6692;50.710;7.180;2023-02-22T11:36:49;246.27;;;236.67;;
13250;SDS011;6692;50.710;7.180;2023-02-22T11:38:53;230.20;;;220.90;;
13250;SDS011;6692;50.710;7.180;2023-02-22T11:43:16;301.83;;;290.00;;
13250;SDS011;6692;50.710;7.180;2023-02-22T11:45:17;334.77;;;321.33;;
13250;SDS011;6692;50.710;7.180;2023-02-22T11:47:18;360.43;;;346.10;;
13250;SDS011;6692;50.710;7.180;2023-02-22T11:49:18;361.37;;;347.23;;
13250;SDS011;6692;50.710;7.180;2023-02-22T11:51:25;286.70;;;275.67;;
13250;SDS011;6692;50.710;7.180;2023-02-22T11:55:46;399.00;;;383.37;;
13250;SDS011;6692;50.710;7.180;2023-02-22T11:57:56;424.63;;;407.57;;
13250;SDS011;6692;50.710;7.180;2023-02-22T12:00:01;467.80;;;448.67;;
13250;SDS011;6692;50.710;7.180;2023-02-22T12:02:04;416.00;;;399.93;;
13250;SDS011;6692;50.710;7.180;2023-02-22T12:04:13;437.87;;;420.67;;
13250;SDS011;6692;50.710;7.180;2023-02-22T12:09:06;440.20;;;422.90;;
13250;SDS011;6692;50.710;7.180;2023-02-22T12:10:56;451.80;;;433.73;;
13250;SDS011;6692;50.710;7.180;2023-02-22T12:13:08;433.87;;;416.93;;
13250;SDS011;6692;50.710;7.180;2023-02-22T12:15:11;470.67;;;451.60;;
13250;SDS011;6692;50.710;7.180;2023-02-22T12:17:17;476.17;;;457.03;;
13250;SDS011;6692;50.710;7.180;2023-02-22T12:19:26;503.40;;;482.97;;
13250;SDS011;6692;50.710;7.180;2023-02-22T12:21:27;514.63;;;493.20;;
13250;SDS011;6692;50.710;7.180;2023-02-22T12:23:30;486.40;;;466.93;;